createdAt,value
2023-12-09T00:03:35.445Z,100695.30
2023-12-09T00:08:39.090Z,100689.17
2023-12-09T00:13:42.312Z,100688.00
2023-12-09T00:18:46.515Z,100681.54
2023-12-09T00:23:50.160Z,100675.11
2023-12-09T00:28:53.971Z,100681.88
2023-12-09T00:33:57.232Z,100676.14
2023-12-09T00:39:00.501Z,100670.87
2023-12-09T00:44:03.798Z,100668.77
2023-12-09T00:49:07.384Z,100666.14
2023-12-09T00:54:10.745Z,100657.98
2023-12-09T00:59:13.877Z,100649.65
2023-12-09T01:04:17.638Z,100646.06
2023-12-09T01:09:21.211Z,100640.48
2023-12-09T01:14:24.686Z,100647.09
2023-12-09T01:19:28.619Z,100644.31
2023-12-09T01:24:32.371Z,100637.14
2023-12-09T01:29:37.885Z,100639.02
2023-12-09T01:34:42.229Z,100647.02
2023-12-09T01:39:45.529Z,100646.75
2023-12-09T01:44:48.532Z,100626.10
2023-12-09T01:49:52.168Z,100623.14
2023-12-09T01:54:55.566Z,100626.85
2023-12-09T01:59:58.800Z,100625.96
2023-12-09T02:05:03.649Z,100622.13
2023-12-09T02:10:07.797Z,100617.10
2023-12-09T02:15:25.943Z,100613.64
2023-12-09T02:20:31.138Z,100614.50
2023-12-09T02:25:35.667Z,100603.86
2023-12-09T02:30:51.609Z,100601.14
2023-12-09T02:35:56.619Z,100598.02
2023-12-09T02:41:00.068Z,100599.80
2023-12-09T02:46:04.010Z,100600.36
2023-12-09T02:51:08.274Z,100600.25
2023-12-09T02:56:11.950Z,100606.84
2023-12-09T03:01:15.430Z,100601.77
2023-12-09T03:06:18.960Z,100593.59
2023-12-09T03:11:22.493Z,100589.39
2023-12-09T03:16:25.857Z,100585.05
2023-12-09T03:21:29.243Z,100581.25
2023-12-09T03:26:33.257Z,100576.94
2023-12-09T03:31:42.452Z,100569.79
2023-12-09T03:36:45.665Z,100577.31
2023-12-09T03:41:48.915Z,100576.46
2023-12-09T03:46:52.438Z,100573.31
2023-12-09T03:51:55.725Z,100568.81
2023-12-09T03:56:58.977Z,100566.91
2023-12-09T04:02:02.257Z,100560.45
2023-12-09T04:07:05.470Z,100559.76
2023-12-09T04:12:08.912Z,100557.44
2023-12-09T04:17:12.283Z,100553.46
2023-12-09T04:22:15.491Z,100546.54
2023-12-09T04:27:18.859Z,100539.27
2023-12-09T04:32:22.234Z,100541.03
2023-12-09T04:37:26.138Z,100535.98
2023-12-09T04:42:32.630Z,100538.80
2023-12-09T04:47:36.363Z,100536.95
2023-12-09T04:52:39.725Z,100525.88
2023-12-09T04:57:43.068Z,100526.27
2023-12-09T05:02:46.384Z,100524.39
2023-12-09T05:07:49.686Z,100517.26
2023-12-09T05:12:52.996Z,100515.69
2023-12-09T05:17:56.291Z,100514.48
2023-12-09T05:22:59.630Z,100516.27
2023-12-09T05:28:02.933Z,100522.17
2023-12-09T05:33:06.347Z,100525.46
2023-12-09T05:38:09.884Z,100523.14
2023-12-09T05:43:13.179Z,100522.09
2023-12-09T05:48:17.037Z,100516.01
2023-12-09T06:00:04.928Z,100523.38
2023-12-09T06:05:10.291Z,100516.53
2023-12-09T06:10:14.660Z,100517.07
2023-12-09T06:15:19.509Z,100517.35
2023-12-09T06:20:23.142Z,100515.17
2023-12-09T06:25:26.318Z,100523.80
2023-12-09T06:30:30.142Z,100526.85
2023-12-09T06:35:33.695Z,100524.91
2023-12-09T06:40:36.998Z,100528.97
2023-12-09T06:45:40.229Z,100534.70
2023-12-09T06:50:44.712Z,100530.15
2023-12-09T06:55:47.947Z,100514.27
2023-12-09T07:00:51.751Z,100512.50
2023-12-09T07:05:55.131Z,100508.27
2023-12-09T07:11:00.958Z,100510.79
2023-12-09T07:16:05.356Z,100518.01
2023-12-09T07:21:08.737Z,100525.59
2023-12-09T07:26:13.660Z,100520.48
2023-12-09T07:31:17.465Z,100518.48
2023-12-09T07:36:21.501Z,100508.56
2023-12-09T07:41:24.920Z,100498.84
2023-12-09T07:46:28.737Z,100494.05
2023-12-09T07:51:32.964Z,100486.03
2023-12-09T07:56:36.398Z,100485.07
2023-12-09T08:01:43.102Z,100493.16
2023-12-09T08:06:47.164Z,100493.12
2023-12-09T08:11:53.621Z,100484.85
2023-12-09T08:16:57.822Z,100485.08
2023-12-09T08:22:01.632Z,100483.37
2023-12-09T08:27:05.444Z,100478.44
2023-12-09T08:32:10.719Z,100470.86
2023-12-09T08:37:13.921Z,100467.58
2023-12-09T08:42:17.125Z,100465.20
2023-12-09T08:47:20.744Z,100461.40
2023-12-09T08:52:24.059Z,100459.24
2023-12-09T08:57:28.631Z,100454.20
2023-12-09T09:02:33.862Z,100447.38
2023-12-09T09:07:41.721Z,100444.08
2023-12-09T09:12:45.559Z,100437.89
2023-12-09T09:17:49.293Z,100433.89
2023-12-09T09:22:52.557Z,100430.64
2023-12-09T09:27:56.201Z,100428.33
2023-12-09T09:33:00.432Z,100429.73
2023-12-09T09:38:03.783Z,100421.48
2023-12-09T09:43:13.763Z,100411.36
2023-12-09T09:48:25.681Z,100401.77
2023-12-09T09:53:38.974Z,100394.20
2023-12-09T09:58:43.726Z,100383.36
2023-12-09T10:03:47.953Z,100381.36
2023-12-09T10:08:52.524Z,100372.24
2023-12-09T10:13:55.932Z,100370.06
2023-12-09T10:18:59.254Z,100362.66
2023-12-09T10:24:05.502Z,100359.41
2023-12-09T10:29:08.831Z,100357.83
2023-12-09T10:34:14.240Z,100353.77
2023-12-09T10:39:21.018Z,100350.35
2023-12-09T10:44:24.328Z,100345.90
2023-12-09T10:49:27.799Z,100343.11
2023-12-09T10:54:31.594Z,100343.73
2023-12-09T10:59:36.281Z,100339.98
2023-12-09T11:04:40.291Z,100336.19
2023-12-09T11:09:44.683Z,100332.23
2023-12-09T11:14:48.052Z,100328.56
2023-12-09T11:19:51.561Z,100320.77
2023-12-09T11:24:55.493Z,100316.20
2023-12-09T11:30:00.784Z,100313.92
2023-12-09T11:35:06.312Z,100305.46
2023-12-09T11:40:11.394Z,100301.73
2023-12-09T11:45:16.237Z,100294.39
2023-12-09T11:50:20.474Z,100283.65
2023-12-09T11:55:24.663Z,100276.66
2023-12-09T12:00:28.167Z,100273.97
2023-12-09T12:05:33.149Z,100271.51
2023-12-09T12:10:39.033Z,100267.59
2023-12-09T12:15:43.972Z,100271.00
2023-12-09T12:20:50.070Z,100267.67
2023-12-09T12:25:55.455Z,100269.59
2023-12-09T12:31:03.410Z,100269.09
2023-12-09T12:36:07.507Z,100265.23
2023-12-09T12:41:11.155Z,100260.55
2023-12-09T12:46:14.403Z,100258.88
2023-12-09T12:51:18.595Z,100249.25
2023-12-09T12:56:22.104Z,100249.09
2023-12-09T13:01:25.467Z,100252.13
2023-12-09T13:06:29.805Z,100246.23
2023-12-09T13:11:33.543Z,100245.38
2023-12-09T13:16:38.682Z,100246.94
2023-12-09T13:21:44.451Z,100242.83
2023-12-09T13:26:48.737Z,100240.61
2023-12-09T13:31:52.304Z,100239.43
2023-12-09T13:36:56.483Z,100235.41
2023-12-09T13:41:59.970Z,100230.38
2023-12-09T13:47:03.509Z,100231.27
2023-12-09T13:52:07.230Z,100227.25
2023-12-09T13:57:11.321Z,100223.96
2023-12-09T14:02:15.086Z,100215.03
2023-12-09T14:07:19.217Z,100208.45
2023-12-09T14:12:22.548Z,100201.33
2023-12-09T14:17:26.447Z,100204.46
2023-12-09T14:22:32.546Z,100196.96
2023-12-09T14:27:37.018Z,100194.94
2023-12-09T14:32:45.812Z,100187.14
2023-12-09T14:37:52.075Z,100180.58
2023-12-09T14:42:55.771Z,100174.65
2023-12-09T14:48:04.961Z,100167.09
2023-12-09T14:53:15.625Z,100156.91
2023-12-09T14:58:19.640Z,100142.52
2023-12-09T15:03:23.118Z,100135.99
2023-12-09T15:08:27.019Z,100128.01
2023-12-09T15:13:31.917Z,100122.48
2023-12-09T15:18:35.662Z,100119.73
2023-12-09T15:23:39.249Z,100119.11
2023-12-09T15:28:42.789Z,100104.17
2023-12-09T15:33:46.489Z,100097.41
2023-12-09T15:38:50.205Z,100094.16
2023-12-09T15:43:53.440Z,100089.35
2023-12-09T15:48:57.127Z,100078.55
2023-12-09T15:54:01.024Z,100072.67
2023-12-09T15:59:04.609Z,100066.64
2023-12-09T16:04:08.553Z,100058.70
2023-12-09T16:09:14.068Z,100043.42
2023-12-09T16:14:17.497Z,100043.73
2023-12-09T16:19:20.890Z,100038.95
2023-12-09T16:24:28.952Z,100035.85
2023-12-09T16:29:32.785Z,100032.73
2023-12-09T16:34:36.306Z,100034.38
2023-12-09T16:39:40.125Z,100037.52
2023-12-09T16:44:43.722Z,100035.40
2023-12-09T16:49:47.259Z,100032.55
2023-12-09T16:54:50.775Z,100027.66
2023-12-09T16:59:54.622Z,100025.08
2023-12-09T17:04:58.949Z,100021.96
2023-12-09T17:10:02.220Z,100021.15
2023-12-09T17:15:06.770Z,100016.85
2023-12-09T17:20:10.888Z,100010.22
2023-12-09T17:25:15.019Z,100013.27
2023-12-09T17:30:19.131Z,100006.55
2023-12-09T17:35:24.220Z,100003.67
2023-12-09T17:40:27.851Z,99996.89
2023-12-09T17:45:31.268Z,99993.66
2023-12-09T17:50:34.962Z,99981.27
2023-12-09T17:55:38.559Z,99968.39
2023-12-09T18:00:42.845Z,99964.11
2023-12-09T18:05:46.408Z,99963.66
2023-12-09T18:10:49.639Z,99955.17
2023-12-09T18:15:52.883Z,99941.80
2023-12-09T18:20:56.247Z,99936.80
2023-12-09T18:26:00.282Z,99926.55
2023-12-09T18:31:04.840Z,99924.09
2023-12-09T18:36:09.701Z,99917.18
2023-12-09T18:41:13.439Z,99912.33
2023-12-09T18:46:18.002Z,99906.10
2023-12-09T18:51:21.191Z,99898.39
2023-12-09T18:56:25.964Z,99892.02
2023-12-09T19:01:30.066Z,99887.66
2023-12-09T19:06:42.205Z,99878.29
2023-12-09T19:11:53.316Z,99873.64
2023-12-09T19:16:58.224Z,99868.63
2023-12-09T19:22:02.613Z,99862.21
2023-12-09T19:27:06.870Z,99855.49
2023-12-09T19:32:10.654Z,99850.35
2023-12-09T19:37:14.110Z,99842.92
2023-12-09T19:42:19.772Z,99834.00
2023-12-09T19:47:23.358Z,99831.08
2023-12-09T19:52:26.858Z,99825.34
2023-12-09T19:57:31.242Z,99813.33
2023-12-09T20:02:36.261Z,99806.76
2023-12-09T20:07:41.311Z,99801.27
2023-12-09T20:12:44.816Z,99798.68
2023-12-09T20:17:48.368Z,99796.61
2023-12-09T20:22:51.949Z,99792.23
2023-12-09T20:27:58.276Z,99788.04
2023-12-09T20:33:02.734Z,99777.88
2023-12-09T20:38:06.682Z,99777.95
2023-12-09T20:43:12.068Z,99776.20
2023-12-09T20:48:17.670Z,99765.86
2023-12-09T20:53:21.543Z,99762.02
2023-12-09T20:58:25.425Z,99753.09
2023-12-09T21:03:29.177Z,99752.09
2023-12-09T21:08:33.014Z,99748.38
2023-12-09T21:13:36.526Z,99747.45
2023-12-09T21:18:40.055Z,99738.30
2023-12-09T21:23:44.048Z,99732.32
2023-12-09T21:28:47.415Z,99722.83
2023-12-09T21:33:50.633Z,99722.84
2023-12-09T21:38:55.949Z,99735.83
2023-12-09T21:43:59.518Z,99736.20
2023-12-09T21:49:04.422Z,99736.55
2023-12-09T21:54:08.788Z,99736.40
2023-12-09T21:59:12.163Z,99729.52
2023-12-09T22:04:15.970Z,99726.30
2023-12-09T22:09:20.322Z,99723.57
2023-12-09T22:14:24.356Z,99714.31
2023-12-09T22:19:27.811Z,99706.63
2023-12-09T22:24:31.232Z,99693.90
2023-12-09T22:29:36.480Z,99680.39
2023-12-09T22:34:39.894Z,99676.45
2023-12-09T22:39:43.459Z,99671.83
2023-12-09T22:44:46.766Z,99664.91
2023-12-09T22:49:50.457Z,99661.02
2023-12-09T22:54:54.153Z,99654.17
2023-12-09T22:59:58.346Z,99653.26
2023-12-09T23:05:01.794Z,99644.14
2023-12-09T23:10:06.532Z,99642.67
2023-12-09T23:15:10.812Z,99637.10
2023-12-09T23:20:14.492Z,99630.86
2023-12-09T23:25:18.310Z,99623.52
2023-12-09T23:30:21.730Z,99614.02
2023-12-09T23:35:25.136Z,99606.27
2023-12-09T23:40:29.074Z,99598.33
2023-12-09T23:45:33.021Z,99598.96
2023-12-09T23:50:36.512Z,99598.90
2023-12-09T23:55:39.711Z,99596.05
